createdAt,value
2018-11-12T00:00:19.818Z,98.32
2018-11-12T00:02:49.946Z,98.50
2018-11-12T00:05:18.227Z,98.19
2018-11-12T00:07:46.148Z,98.26
2018-11-12T00:10:13.917Z,97.91
2018-11-12T00:12:41.694Z,97.98
2018-11-12T00:15:10.756Z,97.73
2018-11-12T00:17:38.760Z,97.57
2018-11-12T00:20:07.487Z,97.69
2018-11-12T00:22:35.463Z,97.54
2018-11-12T00:25:03.387Z,97.60
2018-11-12T00:27:31.149Z,97.44
2018-11-12T00:29:58.975Z,97.63
2018-11-12T00:32:26.865Z,97.98
2018-11-12T00:34:54.693Z,97.67
2018-11-12T00:37:22.441Z,97.76
2018-11-12T00:39:50.317Z,97.82
2018-11-12T00:42:18.100Z,97.79
2018-11-12T00:44:45.950Z,97.64
2018-11-12T00:47:13.734Z,97.87
2018-11-12T00:49:41.789Z,97.74
2018-11-12T00:52:09.559Z,98.00
2018-11-12T00:54:37.375Z,98.09
2018-11-12T00:57:05.363Z,98.00
2018-11-12T00:59:33.146Z,98.12
2018-11-12T01:02:01.080Z,97.92
2018-11-12T01:04:29.473Z,98.41
2018-11-12T01:06:57.239Z,98.19
2018-11-12T01:09:24.978Z,98.25
2018-11-12T01:11:52.789Z,98.32
2018-11-12T01:14:20.605Z,98.31
2018-11-12T01:16:48.404Z,97.95
2018-11-12T01:19:16.344Z,98.35
2018-11-12T01:21:44.246Z,98.10
2018-11-12T01:24:12.307Z,98.17
2018-11-12T01:26:40.079Z,98.00
2018-11-12T01:29:07.833Z,98.00
2018-11-12T01:31:35.706Z,98.10
2018-11-12T01:34:03.515Z,98.22
2018-11-12T01:36:31.278Z,98.19
2018-11-12T01:38:59.083Z,98.07
2018-11-12T01:41:26.800Z,98.17
2018-11-12T01:43:54.556Z,98.23
2018-11-12T01:46:22.349Z,98.50
2018-11-12T01:48:50.160Z,98.23
2018-11-12T01:51:17.908Z,98.40
2018-11-12T01:53:46.247Z,98.48
2018-11-12T01:56:14.043Z,98.60
2018-11-12T01:58:41.831Z,98.36
2018-11-12T02:01:09.598Z,98.36
2018-11-12T02:03:38.020Z,98.46
2018-11-12T02:06:05.811Z,98.42
2018-11-12T02:08:33.598Z,98.64
2018-11-12T02:11:01.364Z,98.68
2018-11-12T02:13:29.245Z,98.71
2018-11-12T02:15:57.046Z,99.02
2018-11-12T02:18:24.816Z,98.57
2018-11-12T02:20:52.579Z,98.63
2018-11-12T02:23:20.354Z,98.74
2018-11-12T02:25:48.114Z,98.98
2018-11-12T02:28:15.919Z,98.84
2018-11-12T02:30:46.072Z,99.10
2018-11-12T02:33:15.130Z,98.96
2018-11-12T02:35:42.910Z,99.22
2018-11-12T02:38:10.828Z,98.96
2018-11-12T02:40:38.606Z,98.97
2018-11-12T02:43:06.672Z,99.02
2018-11-12T02:45:34.508Z,99.01
2018-11-12T02:48:02.255Z,99.22
2018-11-12T02:50:30.003Z,98.91
2018-11-12T02:52:57.770Z,99.01
2018-11-12T02:55:25.521Z,99.04
2018-11-12T02:57:53.290Z,98.92
2018-11-12T03:00:22.329Z,99.12
2018-11-12T03:02:50.418Z,98.96
2018-11-12T03:05:18.214Z,99.23
2018-11-12T03:07:46.245Z,98.95
2018-11-12T03:10:17.209Z,98.92
2018-11-12T03:12:44.975Z,99.20
2018-11-12T03:15:13.927Z,99.14
2018-11-12T03:17:42.442Z,99.04
2018-11-12T03:20:12.360Z,99.08
2018-11-12T03:22:40.240Z,99.13
2018-11-12T03:25:09.480Z,99.13
2018-11-12T03:27:37.296Z,99.21
2018-11-12T03:30:05.759Z,99.14
2018-11-12T03:32:33.531Z,99.06
2018-11-12T03:35:01.291Z,99.00
2018-11-12T03:37:29.058Z,98.86
2018-11-12T03:39:56.788Z,98.95
2018-11-12T03:42:24.558Z,98.96
2018-11-12T03:44:52.339Z,98.86
2018-11-12T03:47:20.091Z,98.83
2018-11-12T03:49:47.890Z,98.75
2018-11-12T03:52:15.642Z,98.98
2018-11-12T03:54:43.397Z,98.74
2018-11-12T03:57:11.176Z,98.59
2018-11-12T03:59:38.970Z,98.46
2018-11-12T04:02:06.756Z,98.36
2018-11-12T04:04:34.514Z,98.44
2018-11-12T04:07:02.243Z,98.46
2018-11-12T04:09:30.027Z,98.41
2018-11-12T04:11:57.826Z,98.28
2018-11-12T04:14:25.594Z,98.46
2018-11-12T04:16:53.395Z,98.37
2018-11-12T04:19:21.217Z,98.12
2018-11-12T04:21:48.968Z,98.11
2018-11-12T04:24:16.711Z,98.33
2018-11-12T04:26:44.484Z,98.14
2018-11-12T04:29:12.256Z,98.34
2018-11-12T04:31:40.068Z,98.35
2018-11-12T04:34:07.861Z,98.35
2018-11-12T04:36:35.663Z,98.31
2018-11-12T04:39:05.406Z,98.78
2018-11-12T04:41:33.206Z,98.76
2018-11-12T04:44:00.948Z,98.34
2018-11-12T04:46:28.702Z,98.42
2018-11-12T04:48:56.517Z,98.46
2018-11-12T04:51:24.302Z,98.55
2018-11-12T04:53:52.094Z,98.51
2018-11-12T04:56:19.854Z,98.40
2018-11-12T04:58:47.860Z,98.25
2018-11-12T05:01:16.473Z,98.43
2018-11-12T05:03:44.246Z,98.48
2018-11-12T05:06:12.034Z,98.52
2018-11-12T05:08:39.828Z,98.84
2018-11-12T05:11:07.652Z,98.51
2018-11-12T05:13:36.260Z,98.42
2018-11-12T05:16:04.401Z,98.59
2018-11-12T05:18:32.184Z,98.91
2018-11-12T05:20:59.928Z,98.89
2018-11-12T05:23:27.745Z,98.63
2018-11-12T05:25:55.541Z,98.76
2018-11-12T05:28:23.314Z,98.54
2018-11-12T05:30:51.094Z,98.72
2018-11-12T05:33:18.862Z,98.71
2018-11-12T05:35:46.620Z,98.74
2018-11-12T05:38:15.109Z,98.84
2018-11-12T05:40:42.922Z,98.73
2018-11-12T05:43:10.741Z,98.81
2018-11-12T05:45:38.484Z,98.61
2018-11-12T05:48:06.291Z,98.83
2018-11-12T05:50:34.035Z,99.16
2018-11-12T05:53:03.107Z,98.70
2018-11-12T05:55:31.509Z,98.74
2018-11-12T05:57:59.615Z,98.76
2018-11-12T06:00:29.682Z,99.13
2018-11-12T06:02:57.429Z,99.10
2018-11-12T06:05:25.214Z,99.03
2018-11-12T06:07:52.977Z,99.04
2018-11-12T06:10:22.017Z,99.33
2018-11-12T06:12:50.050Z,98.91
2018-11-12T06:15:18.650Z,99.11
2018-11-12T06:17:47.355Z,99.10
2018-11-12T06:20:17.269Z,99.06
2018-11-12T06:22:45.122Z,98.89
2018-11-12T06:25:14.241Z,99.13
2018-11-12T06:27:41.999Z,98.96
2018-11-12T06:30:14.863Z,99.10
2018-11-12T06:32:42.802Z,99.19
2018-11-12T06:35:11.566Z,99.00
2018-11-12T06:37:39.515Z,99.05
2018-11-12T06:40:09.337Z,98.93
2018-11-12T06:42:37.708Z,98.95
2018-11-12T06:45:08.042Z,98.68
2018-11-12T06:47:35.801Z,98.51
2018-11-12T06:50:04.202Z,98.38
2018-11-12T06:52:31.967Z,98.30
2018-11-12T06:54:59.786Z,98.28
2018-11-12T06:57:27.627Z,97.99
2018-11-12T06:59:55.420Z,97.97
2018-11-12T07:02:23.170Z,97.88
2018-11-12T07:04:50.908Z,97.83
2018-11-12T07:07:18.712Z,97.83
2018-11-12T07:09:46.569Z,97.82
2018-11-12T07:12:14.400Z,97.51
2018-11-12T07:14:42.226Z,97.53
2018-11-12T07:17:10.044Z,97.31
2018-11-12T07:19:37.951Z,97.45
2018-11-12T07:22:05.733Z,97.35
2018-11-12T07:24:33.498Z,97.81
2018-11-12T07:27:01.258Z,97.90
2018-11-12T07:29:29.039Z,98.19
2018-11-12T07:31:56.788Z,97.85
2018-11-12T07:34:24.542Z,98.14
2018-11-12T07:36:52.268Z,98.33
2018-11-12T07:39:20.128Z,98.28
2018-11-12T07:41:47.941Z,98.45
2018-11-12T07:44:15.739Z,98.53
2018-11-12T07:46:43.519Z,98.26
2018-11-12T07:49:11.280Z,98.52
2018-11-12T07:51:39.056Z,98.49
2018-11-12T07:54:06.805Z,98.24
2018-11-12T07:56:34.622Z,98.41
2018-11-12T07:59:03.328Z,98.39
2018-11-12T08:01:31.069Z,98.48
2018-11-12T08:03:58.889Z,98.16
2018-11-12T08:06:26.673Z,98.55
2018-11-12T08:08:54.453Z,98.64
2018-11-12T08:11:22.226Z,98.30
2018-11-12T08:13:50.016Z,98.66
2018-11-12T08:16:17.761Z,98.30
2018-11-12T08:18:45.509Z,98.36
2018-11-12T08:21:13.303Z,98.42
2018-11-12T08:23:41.063Z,98.34
2018-11-12T08:26:08.841Z,98.41
2018-11-12T08:28:36.622Z,98.38
2018-11-12T08:31:04.400Z,98.38
2018-11-12T08:33:32.132Z,98.49
2018-11-12T08:35:59.967Z,98.51
2018-11-12T08:38:27.712Z,98.26
2018-11-12T08:40:55.512Z,98.36
2018-11-12T08:43:23.236Z,98.64
2018-11-12T08:45:51.016Z,98.33
2018-11-12T08:48:18.814Z,98.49
2018-11-12T08:50:46.555Z,98.44
2018-11-12T08:53:14.332Z,98.50
2018-11-12T08:55:42.296Z,98.44
2018-11-12T08:58:10.503Z,98.57
2018-11-12T09:00:37.830Z,98.58
2018-11-12T09:03:05.652Z,98.50
2018-11-12T09:05:33.629Z,98.67
2018-11-12T09:08:02.455Z,98.55
2018-11-12T09:10:31.526Z,98.79
2018-11-12T09:12:59.284Z,98.80
2018-11-12T09:15:27.104Z,98.82
2018-11-12T09:17:54.907Z,98.67
2018-11-12T09:20:24.863Z,98.59
2018-11-12T09:22:53.089Z,98.67
2018-11-12T09:25:22.045Z,98.56
2018-11-12T09:27:50.109Z,98.63
2018-11-12T09:30:19.301Z,98.85
2018-11-12T09:32:47.303Z,98.58
2018-11-12T09:35:23.028Z,98.78
2018-11-12T09:37:51.876Z,98.65
2018-11-12T09:40:27.712Z,98.94
2018-11-12T09:42:55.444Z,98.91
2018-11-12T09:45:23.286Z,98.76
2018-11-12T09:47:51.111Z,98.81
2018-11-12T09:50:19.988Z,98.81
2018-11-12T09:52:49.065Z,99.24
2018-11-12T09:55:17.575Z,99.12
2018-11-12T09:57:49.856Z,99.11
2018-11-12T10:00:18.951Z,99.04
2018-11-12T10:02:48.196Z,99.08
2018-11-12T10:05:17.229Z,99.37
2018-11-12T10:07:46.325Z,99.18
2018-11-12T10:10:34.370Z,99.28
2018-11-12T10:13:01.653Z,99.14
2018-11-12T10:15:31.366Z,99.09
2018-11-12T10:17:58.819Z,99.38
2018-11-12T10:20:23.655Z,99.39
2018-11-12T10:22:51.388Z,99.36
2018-11-12T10:25:19.866Z,99.51
2018-11-12T10:27:47.667Z,99.41
2018-11-12T10:30:15.426Z,99.62
2018-11-12T10:32:43.246Z,99.18
2018-11-12T10:35:11.133Z,99.14
2018-11-12T10:37:39.715Z,99.24
2018-11-12T10:40:10.824Z,99.01
2018-11-12T10:42:38.639Z,99.31
2018-11-12T10:45:06.779Z,99.09
2018-11-12T10:47:34.556Z,99.11
2018-11-12T10:50:02.339Z,99.20
2018-11-12T10:52:30.083Z,99.04
2018-11-12T10:55:04.900Z,98.84
2018-11-12T10:57:25.662Z,98.57
2018-11-12T10:59:53.420Z,98.83
2018-11-12T11:02:26.660Z,98.83
2018-11-12T11:04:54.398Z,98.89
2018-11-12T11:07:22.191Z,98.78
2018-11-12T11:09:49.970Z,98.95
2018-11-12T11:12:17.727Z,98.76
2018-11-12T11:14:45.510Z,98.95
2018-11-12T11:17:13.279Z,98.79
2018-11-12T11:19:41.148Z,98.89
2018-11-12T11:22:08.897Z,98.93
2018-11-12T11:24:36.734Z,99.06
2018-11-12T11:27:04.552Z,98.76
2018-11-12T11:29:32.314Z,99.28
2018-11-12T11:32:00.183Z,99.13
2018-11-12T11:34:27.958Z,98.98
2018-11-12T11:36:56.563Z,99.15
2018-11-12T11:39:24.320Z,99.16
2018-11-12T11:41:52.096Z,99.36
2018-11-12T11:44:19.854Z,98.83
2018-11-12T11:46:47.626Z,98.77
2018-11-12T11:49:15.389Z,99.01
2018-11-12T11:51:43.216Z,98.86
2018-11-12T11:54:11.027Z,98.71
2018-11-12T11:56:38.874Z,98.73
2018-11-12T11:59:06.578Z,98.78
2018-11-12T12:01:34.312Z,98.87
2018-11-12T12:04:02.119Z,98.62
2018-11-12T12:06:30.805Z,98.67
2018-11-12T12:08:58.640Z,98.79
2018-11-12T12:11:26.398Z,98.37
2018-11-12T12:13:54.285Z,98.61
2018-11-12T12:16:22.053Z,98.28
2018-11-12T12:18:49.801Z,98.63
2018-11-12T12:21:17.531Z,98.32
2018-11-12T12:23:45.291Z,98.65
2018-11-12T12:26:13.040Z,98.77
2018-11-12T12:28:41.186Z,98.55
2018-11-12T12:31:08.962Z,98.74
2018-11-12T12:33:36.751Z,98.88
2018-11-12T12:36:04.754Z,98.49
2018-11-12T12:38:32.454Z,98.71
2018-11-12T12:41:00.179Z,98.77
2018-11-12T12:43:27.964Z,98.68
2018-11-12T12:45:55.753Z,98.81
2018-11-12T12:48:23.558Z,98.73
2018-11-12T12:50:51.366Z,98.96
2018-11-12T12:53:19.150Z,98.85
2018-11-12T12:55:47.354Z,98.58
2018-11-12T12:58:15.144Z,98.77
2018-11-12T13:00:42.898Z,98.90
2018-11-12T13:03:10.660Z,98.92
2018-11-12T13:05:39.444Z,98.91
2018-11-12T13:08:07.204Z,98.78
2018-11-12T13:10:34.947Z,99.32
2018-11-12T13:13:02.718Z,99.04
2018-11-12T13:15:30.473Z,99.32
2018-11-12T13:17:58.199Z,99.53
2018-11-12T13:20:26.006Z,99.14
2018-11-12T13:22:53.747Z,99.10
2018-11-12T13:25:21.509Z,99.14
2018-11-12T13:27:49.334Z,99.23
2018-11-12T13:30:19.699Z,98.91
2018-11-12T13:32:47.783Z,99.40
2018-11-12T13:35:16.968Z,99.17
2018-11-12T13:37:44.841Z,99.33
2018-11-12T13:40:15.587Z,99.58
2018-11-12T13:42:44.730Z,99.65
2018-11-12T13:45:12.496Z,99.70
2018-11-12T13:47:40.268Z,99.65
2018-11-12T13:50:12.185Z,99.47
2018-11-12T13:52:39.999Z,99.42
2018-11-12T13:55:09.370Z,99.34
2018-11-12T13:57:37.120Z,99.52
2018-11-12T14:00:07.546Z,99.40
2018-11-12T14:02:35.307Z,99.73
2018-11-12T14:05:03.234Z,99.81
2018-11-12T14:07:30.971Z,99.74
2018-11-12T14:09:58.719Z,99.85
2018-11-12T14:12:26.484Z,99.79
2018-11-12T14:14:54.283Z,99.79
2018-11-12T14:17:22.025Z,99.85
2018-11-12T14:19:49.761Z,99.93
2018-11-12T14:22:17.496Z,99.69
2018-11-12T14:24:45.270Z,99.93
2018-11-12T14:27:13.415Z,99.86
2018-11-12T14:29:41.267Z,100.00
2018-11-12T14:32:09.049Z,100.00
2018-11-12T14:34:36.807Z,100.00
2018-11-12T14:37:04.727Z,100.00
2018-11-12T14:39:32.598Z,100.00
2018-11-12T14:42:00.406Z,100.00
2018-11-12T14:44:28.203Z,100.00
2018-11-12T14:46:55.929Z,99.98
2018-11-12T14:49:23.658Z,100.00
2018-11-12T14:51:51.424Z,100.00
2018-11-12T14:54:19.211Z,99.74
2018-11-12T14:56:46.961Z,99.95
2018-11-12T14:59:14.670Z,99.94
2018-11-12T15:01:42.515Z,99.87
2018-11-12T15:04:10.261Z,99.95
2018-11-12T15:06:38.052Z,99.99
2018-11-12T15:09:08.513Z,100.00
2018-11-12T15:11:36.335Z,100.00
2018-11-12T15:14:04.110Z,100.00
2018-11-12T15:16:31.856Z,99.87
2018-11-12T15:18:59.614Z,99.88
2018-11-12T15:21:27.364Z,100.00
2018-11-12T15:23:55.132Z,99.85
2018-11-12T15:26:22.939Z,100.00
2018-11-12T15:28:50.690Z,99.92
2018-11-12T15:31:18.470Z,100.00
2018-11-12T15:33:46.242Z,100.00
2018-11-12T15:36:14.015Z,100.00
2018-11-12T15:38:41.973Z,100.00
2018-11-12T15:41:09.716Z,100.00
2018-11-12T15:43:37.469Z,100.00
2018-11-12T15:46:05.549Z,100.00
2018-11-12T15:48:33.324Z,100.00
2018-11-12T15:51:01.110Z,100.00
2018-11-12T15:53:28.920Z,100.00
2018-11-12T15:55:56.720Z,100.00
2018-11-12T15:58:24.581Z,100.00
2018-11-12T16:00:52.329Z,100.00
2018-11-12T16:03:20.083Z,100.00
2018-11-12T16:05:47.878Z,100.00
2018-11-12T16:08:15.705Z,100.00
2018-11-12T16:10:43.454Z,100.00
2018-11-12T16:13:11.441Z,100.00
2018-11-12T16:15:39.207Z,100.00
2018-11-12T16:18:07.012Z,100.00
2018-11-12T16:20:34.783Z,100.00
2018-11-12T16:23:02.568Z,100.00
2018-11-12T16:25:30.467Z,100.00
2018-11-12T16:27:58.423Z,100.00
2018-11-12T16:30:26.192Z,100.00
2018-11-12T16:32:53.963Z,100.00
2018-11-12T16:35:22.727Z,100.00
2018-11-12T16:37:51.524Z,100.00
2018-11-12T16:40:19.466Z,100.00
2018-11-12T16:42:48.191Z,100.00
2018-11-12T16:45:19.158Z,100.00
2018-11-12T16:47:50.008Z,100.00
2018-11-12T16:50:18.009Z,100.00
2018-11-12T16:52:45.876Z,100.00
2018-11-12T16:55:19.613Z,100.00
2018-11-12T16:57:47.469Z,100.00
2018-11-12T17:00:16.392Z,100.00
2018-11-12T17:02:44.470Z,100.00
2018-11-12T17:05:13.665Z,100.00
2018-11-12T17:07:41.435Z,100.00
2018-11-12T17:10:10.847Z,100.00
2018-11-12T17:12:39.546Z,100.00
2018-11-12T17:15:07.659Z,100.00
2018-11-12T17:17:35.611Z,100.00
2018-11-12T17:20:03.537Z,100.00
2018-11-12T17:22:31.321Z,100.00
2018-11-12T17:24:59.124Z,100.00
2018-11-12T17:27:26.894Z,100.00
2018-11-12T17:29:54.619Z,100.00
2018-11-12T17:32:22.364Z,100.00
2018-11-12T17:34:50.127Z,100.00
2018-11-12T17:37:17.898Z,100.00
2018-11-12T17:39:45.684Z,100.00
2018-11-12T17:42:13.427Z,100.00
2018-11-12T17:44:41.181Z,100.00
2018-11-12T17:47:09.005Z,100.00
2018-11-12T17:49:36.913Z,100.00
2018-11-12T17:52:04.916Z,100.00
2018-11-12T17:54:32.784Z,100.00
2018-11-12T17:57:00.518Z,100.00
2018-11-12T17:59:28.272Z,100.00
2018-11-12T18:01:56.030Z,100.00
2018-11-12T18:04:23.819Z,100.00
2018-11-12T18:06:51.599Z,100.00
2018-11-12T18:09:19.366Z,100.00
2018-11-12T18:11:47.129Z,100.00
2018-11-12T18:14:14.911Z,100.00
2018-11-12T18:16:42.638Z,100.00
2018-11-12T18:19:10.440Z,100.00
2018-11-12T18:21:44.829Z,100.00
2018-11-12T18:24:12.599Z,100.00
2018-11-12T18:26:40.316Z,100.00
2018-11-12T18:29:08.323Z,100.00
2018-11-12T18:31:36.163Z,100.00
2018-11-12T18:34:04.695Z,100.00
2018-11-12T18:36:32.437Z,100.00
2018-11-12T18:39:01.859Z,100.00
2018-11-12T18:41:30.283Z,100.00
2018-11-12T18:43:58.098Z,100.00
2018-11-12T18:46:25.887Z,100.00
2018-11-12T18:48:53.645Z,100.00
2018-11-12T18:51:21.419Z,100.00
2018-11-12T18:53:50.359Z,100.00
2018-11-12T18:56:18.121Z,100.00
2018-11-12T18:58:46.880Z,100.00
2018-11-12T19:01:14.687Z,100.00
2018-11-12T19:03:42.476Z,100.00
2018-11-12T19:06:10.279Z,100.00
2018-11-12T19:08:38.031Z,100.00
2018-11-12T19:11:05.852Z,100.00
2018-11-12T19:13:33.771Z,100.00
2018-11-12T19:16:01.558Z,100.00
2018-11-12T19:18:29.964Z,100.00
2018-11-12T19:20:58.701Z,100.00
2018-11-12T19:23:28.050Z,100.00
2018-11-12T19:25:56.206Z,100.00
2018-11-12T19:28:24.403Z,100.00
2018-11-12T19:30:53.965Z,100.00
2018-11-12T19:33:23.672Z,100.00
2018-11-12T19:35:51.890Z,100.00
2018-11-12T19:38:20.181Z,100.00
2018-11-12T19:40:48.383Z,100.00
2018-11-12T19:43:18.678Z,100.00
2018-11-12T19:45:46.499Z,100.00
2018-11-12T19:48:14.296Z,100.00
2018-11-12T19:50:42.061Z,100.00
2018-11-12T19:53:09.821Z,100.00
2018-11-12T19:55:37.580Z,100.00
2018-11-12T19:58:05.656Z,100.00
2018-11-12T20:00:33.400Z,100.00
2018-11-12T20:03:01.968Z,100.00
2018-11-12T20:05:29.770Z,100.00
2018-11-12T20:07:59.604Z,100.00
2018-11-12T20:10:27.458Z,100.00
2018-11-12T20:12:55.276Z,100.00
2018-11-12T20:15:24.016Z,100.00
2018-11-12T20:17:52.580Z,100.00
2018-11-12T20:20:24.574Z,100.00
2018-11-12T20:22:52.611Z,100.00
2018-11-12T20:25:20.802Z,100.00
2018-11-12T20:27:49.379Z,100.00
2018-11-12T20:30:23.186Z,100.00
2018-11-12T20:32:50.953Z,100.00
2018-11-12T20:35:18.684Z,100.00
2018-11-12T20:37:46.415Z,100.00
2018-11-12T20:40:15.094Z,100.00
2018-11-12T20:42:44.002Z,100.00
2018-11-12T20:45:13.009Z,100.00
2018-11-12T20:47:41.563Z,100.00
2018-11-12T20:50:10.552Z,100.00
2018-11-12T20:52:38.379Z,100.00
2018-11-12T20:55:07.149Z,100.00
2018-11-12T20:57:35.590Z,100.00
2018-11-12T21:00:03.667Z,100.00
2018-11-12T21:02:31.530Z,100.00
2018-11-12T21:04:59.289Z,100.00
2018-11-12T21:07:27.087Z,100.00
2018-11-12T21:09:54.924Z,100.00
2018-11-12T21:12:22.675Z,100.00
2018-11-12T21:14:50.431Z,100.00
2018-11-12T21:17:18.203Z,100.00
2018-11-12T21:19:45.938Z,100.00
2018-11-12T21:22:14.591Z,100.00
2018-11-12T21:24:42.757Z,100.00
2018-11-12T21:27:10.515Z,100.00
2018-11-12T21:29:38.292Z,100.00
2018-11-12T21:32:06.147Z,100.00
2018-11-12T21:34:33.920Z,100.00
2018-11-12T21:37:01.744Z,100.00
2018-11-12T21:39:29.496Z,99.92
2018-11-12T21:41:57.268Z,99.86
2018-11-12T21:44:25.089Z,100.00
2018-11-12T21:46:52.839Z,99.77
2018-11-12T21:49:20.703Z,100.00
2018-11-12T21:51:48.464Z,99.79
2018-11-12T21:54:16.215Z,100.00
2018-11-12T21:56:43.964Z,100.00
2018-11-12T21:59:11.791Z,100.00
2018-11-12T22:01:39.562Z,100.00
2018-11-12T22:04:07.349Z,100.00
2018-11-12T22:06:35.111Z,99.96
2018-11-12T22:09:04.990Z,99.76
2018-11-12T22:11:32.713Z,99.88
2018-11-12T22:14:00.497Z,99.86
2018-11-12T22:16:28.321Z,99.83
2018-11-12T22:18:56.064Z,99.56
2018-11-12T22:21:23.806Z,99.77
2018-11-12T22:23:51.541Z,99.74
2018-11-12T22:26:19.349Z,99.76
2018-11-12T22:28:47.102Z,99.60
2018-11-12T22:31:14.863Z,99.77
2018-11-12T22:33:42.596Z,99.97
2018-11-12T22:36:10.346Z,99.73
2018-11-12T22:38:38.154Z,99.99
2018-11-12T22:41:05.940Z,99.72
2018-11-12T22:43:33.695Z,99.74
2018-11-12T22:46:01.603Z,99.78
2018-11-12T22:48:29.382Z,99.82
2018-11-12T22:50:57.144Z,99.87
2018-11-12T22:53:24.891Z,99.50
2018-11-12T22:55:52.630Z,99.81
2018-11-12T22:58:20.516Z,99.81
2018-11-12T23:00:48.359Z,99.77
2018-11-12T23:03:16.116Z,99.93
2018-11-12T23:05:43.888Z,99.89
2018-11-12T23:08:11.634Z,99.70
2018-11-12T23:10:39.454Z,99.90
2018-11-12T23:13:07.253Z,99.69
2018-11-12T23:15:35.008Z,99.74
2018-11-12T23:18:02.811Z,99.42
2018-11-12T23:20:30.713Z,99.66
2018-11-12T23:22:58.504Z,99.72
2018-11-12T23:25:26.270Z,99.52
2018-11-12T23:27:54.526Z,99.90
2018-11-12T23:30:23.663Z,99.87
2018-11-12T23:32:51.440Z,99.62
2018-11-12T23:35:20.472Z,99.62
2018-11-12T23:37:48.691Z,99.68
2018-11-12T23:40:16.769Z,99.67
2018-11-12T23:42:45.333Z,99.52
2018-11-12T23:45:13.134Z,99.98
2018-11-12T23:47:40.932Z,99.66
2018-11-12T23:50:13.600Z,99.81
2018-11-12T23:52:41.649Z,99.95
2018-11-12T23:55:09.800Z,99.77
2018-11-12T23:57:37.670Z,99.54
